Time;durP1;ratioP1;P1;durP2;ratioP2;P2;SDS_P1;SDS_P2;PMS_P1;PMS_P2;Temp;Humidity;BMP_temperature;BMP_pressure;BME280_temperature;BME280_humidity;BME280_pressure;Samples;Min_cycle;Max_cycle;Signal;HPM_P1;HPM_P2
2022/06/26 00:00:14;;;;;;;7.85;4.50;;;;;;;15.84;100.00;101148.47;4910495;29;22156;-74
2022/06/26 00:02:40;;;;;;;6.50;4.32;;;;;;;15.84;100.00;101160.94;4894322;29;20047;-74
2022/06/26 00:05:07;;;;;;;8.48;4.78;;;;;;;15.84;100.00;101164.50;4914132;29;20031;-74
2022/06/26 00:07:34;;;;;;;9.13;4.68;;;;;;;15.85;100.00;101222.25;4897885;29;20391;-74
2022/06/26 00:10:00;;;;;;;9.73;4.10;;;;;;;15.86;100.00;101255.16;4901684;29;20390;-76
2022/06/26 00:12:25;;;;;;;7.13;5.10;;;;;;;15.81;100.00;101279.47;4903169;29;20192;-78
2022/06/26 00:14:51;;;;;;;7.75;5.75;;;;;;;15.82;100.00;101264.31;4917401;29;20506;-77
2022/06/26 00:17:17;;;;;;;10.10;5.40;;;;;;;15.86;100.00;101240.00;4916673;29;20031;-76
2022/06/26 00:19:42;;;;;;;8.75;5.70;;;;;;;15.86;100.00;101237.31;4913245;29;20122;-77
2022/06/26 00:22:08;;;;;;;8.63;5.75;;;;;;;15.91;100.00;101233.53;4916358;29;20035;-75
2022/06/26 00:24:34;;;;;;;9.18;4.85;;;;;;;15.92;100.00;101229.94;4897462;29;20766;-75
2022/06/26 00:27:02;;;;;;;7.25;4.63;;;;;;;15.92;100.00;101232.59;4899409;29;20034;-75
2022/06/26 00:29:30;;;;;;;9.80;3.90;;;;;;;15.92;100.00;101229.94;4907245;29;20050;-77
2022/06/26 00:31:55;;;;;;;5.55;3.50;;;;;;;15.89;100.00;101229.13;4890278;29;20035;-75
2022/06/26 00:34:21;;;;;;;7.22;3.58;;;;;;;15.88;100.00;101229.22;4915063;29;20047;-75
2022/06/26 00:36:46;;;;;;;5.40;3.17;;;;;;;15.86;100.00;101236.47;4916005;29;20027;-76
2022/06/26 00:39:12;;;;;;;5.35;3.30;;;;;;;15.83;100.00;101229.53;4918475;29;20319;-75
2022/06/26 00:41:38;;;;;;;3.60;2.55;;;;;;;15.82;100.00;101229.59;4900048;29;20072;-75
2022/06/26 00:44:15;;;;;;;4.15;2.78;;;;;;;15.78;100.00;101230.72;4917461;29;20040;-75
2022/06/26 00:46:41;;;;;;;4.18;2.53;;;;;;;15.73;100.00;101231.03;4927855;29;20063;-77
2022/06/26 00:49:07;;;;;;;3.40;2.65;;;;;;;15.70;100.00;101216.06;4919172;29;20046;-76
2022/06/26 00:51:34;;;;;;;3.67;2.25;;;;;;;15.67;100.00;101207.38;4916341;29;20035;-76
2022/06/26 00:54:00;;;;;;;4.18;2.13;;;;;;;15.65;100.00;101206.63;4899685;29;20451;-75
2022/06/26 00:56:26;;;;;;;4.63;2.60;;;;;;;15.64;100.00;101200.44;4912944;29;20031;-76
2022/06/26 00:58:52;;;;;;;3.95;2.03;;;;;;;15.65;100.00;101202.16;4914664;29;20039;-76
2022/06/26 01:01:17;;;;;;;3.50;2.58;;;;;;;15.66;100.00;101197.66;4914264;29;20047;-76
2022/06/26 01:03:43;;;;;;;2.80;2.00;;;;;;;15.67;100.00;101194.03;4917429;29;20046;-75
2022/06/26 01:06:09;;;;;;;2.85;2.10;;;;;;;15.65;100.00;101190.59;4913491;29;20044;-76
2022/06/26 01:08:35;;;;;;;5.93;2.03;;;;;;;15.66;100.00;101178.97;4915176;29;20125;-75
2022/06/26 01:11:01;;;;;;;4.03;2.00;;;;;;;15.66;100.00;101176.31;4895638;29;20039;-75
2022/06/26 01:13:27;;;;;;;3.92;2.10;;;;;;;15.65;100.00;101169.25;4915787;29;20123;-75
2022/06/26 01:15:53;;;;;;;5.57;2.22;;;;;;;15.63;100.00;101169.34;4897489;29;20040;-75
2022/06/26 01:18:19;;;;;;;1.85;1.55;;;;;;;15.64;100.00;101178.22;4897702;29;20035;-76
2022/06/26 01:20:45;;;;;;;4.78;2.10;;;;;;;15.65;100.00;101180.81;4897538;29;20039;-76
2022/06/26 01:23:10;;;;;;;3.40;1.90;;;;;;;15.67;100.00;101172.69;4914776;29;20063;-75
2022/06/26 01:25:47;;;;;;;3.88;2.00;;;;;;;15.68;100.00;101169.94;4915841;29;20036;-76
2022/06/26 01:28:13;;;;;;;4.47;1.55;;;;;;;15.72;100.00;101173.25;4897801;29;20040;-75
2022/06/26 01:30:38;;;;;;;3.80;1.90;;;;;;;15.73;100.00;101172.31;4880476;29;20047;-75
2022/06/26 01:33:05;;;;;;;3.65;1.95;;;;;;;15.77;100.00;101172.97;4912609;29;20093;-76
2022/06/26 01:35:31;;;;;;;4.70;2.08;;;;;;;15.78;100.00;101166.66;4918214;29;20047;-76
2022/06/26 01:38:10;;;;;;;3.42;1.75;;;;;;;15.81;100.00;101153.16;4901188;29;21980;-75
2022/06/26 01:40:36;;;;;;;2.13;1.80;;;;;;;15.82;100.00;101158.41;4893908;29;20040;-76
2022/06/26 01:43:02;;;;;;;2.25;1.40;;;;;;;15.82;100.00;101165.53;4915156;29;20106;-76
2022/06/26 01:45:27;;;;;;;2.25;1.80;;;;;;;15.81;100.00;101166.50;4915325;29;20048;-76
2022/06/26 01:47:54;;;;;;;4.38;1.40;;;;;;;15.81;100.00;101167.38;4915611;29;20107;-76
2022/06/26 01:50:20;;;;;;;3.15;1.70;;;;;;;15.81;100.00;101163.81;4900365;29;20047;-75
2022/06/26 01:52:45;;;;;;;2.88;1.83;;;;;;;15.82;100.00;101166.41;4911264;29;20040;-76
2022/06/26 01:55:14;;;;;;;2.30;1.63;;;;;;;15.85;100.00;101170.69;4913427;29;20586;-75
2022/06/26 01:57:39;;;;;;;2.67;1.70;;;;;;;15.86;100.00;101162.56;4915089;29;20040;-75
2022/06/26 02:00:06;;;;;;;2.28;1.67;;;;;;;15.89;100.00;101173.06;4913832;29;20086;-75
2022/06/26 02:02:33;;;;;;;2.10;1.90;;;;;;;15.89;100.00;101172.22;4890330;29;20264;-75
2022/06/26 02:04:59;;;;;;;3.88;2.10;;;;;;;15.90;100.00;101168.56;4913057;29;20138;-75
2022/06/26 02:07:25;;;;;;;3.60;1.95;;;;;;;15.93;100.00;101171.09;4897562;29;20047;-76
2022/06/26 02:15:20;;;;;;;2.38;1.73;;;;;;;15.92;100.00;101168.53;4911815;29;20098;-75
2022/06/26 02:17:45;;;;;;;4.00;1.92;;;;;;;15.94;100.00;101175.47;4910994;29;20039;-76
2022/06/26 02:20:12;;;;;;;3.85;2.45;;;;;;;15.95;100.00;101176.34;4914459;29;20533;-76
2022/06/26 02:22:37;;;;;;;3.30;2.42;;;;;;;15.94;100.00;101179.94;4912868;29;20067;-76
2022/06/26 02:25:04;;;;;;;6.55;2.22;;;;;;;15.94;100.00;101187.97;4914157;29;20739;-76
2022/06/26 02:27:29;;;;;;;3.72;2.38;;;;;;;15.94;100.00;101191.50;4896295;29;20815;-77
2022/06/26 02:29:58;;;;;;;4.72;2.25;;;;;;;15.94;100.00;101195.97;4894846;29;20036;-76
2022/06/26 02:32:23;;;;;;;2.42;2.13;;;;;;;15.94;100.00;101198.66;4912589;29;20035;-76
2022/06/26 02:34:49;;;;;;;3.70;2.47;;;;;;;15.93;100.00;101189.78;4879729;29;20115;-76
2022/06/26 02:37:14;;;;;;;5.15;2.47;;;;;;;15.92;100.00;101187.22;4912608;29;20066;-76
2022/06/26 02:39:40;;;;;;;2.20;1.98;;;;;;;15.92;100.00;101193.41;4897569;29;20510;-77
2022/06/26 02:42:05;;;;;;;2.55;2.10;;;;;;;15.92;100.00;101193.41;4877931;29;20082;-77
2022/06/26 02:44:31;;;;;;;3.55;2.38;;;;;;;15.94;100.00;101206.66;4912109;29;20394;-77
2022/06/26 02:46:56;;;;;;;3.05;2.58;;;;;;;15.97;100.00;101206.47;4912889;29;20031;-77
2022/06/26 02:49:22;;;;;;;3.92;2.67;;;;;;;15.98;100.00;101209.06;4912104;29;20036;-76
2022/06/26 02:51:47;;;;;;;3.40;2.47;;;;;;;16.00;100.00;101208.94;4911301;29;20035;-76
2022/06/26 02:54:13;;;;;;;2.13;1.92;;;;;;;15.97;100.00;101218.00;4912439;29;20491;-75
2022/06/26 02:56:38;;;;;;;3.90;2.17;;;;;;;15.96;100.00;101215.44;4897599;29;20118;-76
2022/06/26 02:59:04;;;;;;;2.25;1.95;;;;;;;15.94;100.00;101210.19;4897683;29;20083;-77
2022/06/26 03:01:29;;;;;;;2.92;1.80;;;;;;;15.92;100.00;101209.44;4912318;29;20031;-76
2022/06/26 03:03:55;;;;;;;2.63;2.00;;;;;;;15.88;100.00;101208.75;4900074;29;20497;-76
2022/06/26 03:06:21;;;;;;;3.45;1.92;;;;;;;15.88;100.00;101207.88;4913394;29;20042;-75
2022/06/26 03:08:46;;;;;;;2.08;1.77;;;;;;;15.86;100.00;101197.28;4913239;29;20044;-76
2022/06/26 03:11:12;;;;;;;3.38;2.17;;;;;;;15.87;100.00;101201.66;4911741;29;20152;-76
2022/06/26 03:13:38;;;;;;;5.05;2.38;;;;;;;15.85;100.00;101205.41;4895454;29;20118;-77
2022/06/26 03:16:03;;;;;;;3.63;1.83;;;;;;;15.86;100.00;101204.44;4898388;29;20046;-77
2022/06/26 03:18:29;;;;;;;2.03;1.83;;;;;;;15.85;100.00;101194.72;4895978;29;20044;-77
2022/06/26 03:20:55;;;;;;;2.50;2.00;;;;;;;15.85;100.00;101200.06;4898148;29;20186;-77
2022/06/26 03:23:20;;;;;;;2.13;1.85;;;;;;;15.84;100.00;101195.66;4912341;29;20734;-77
2022/06/26 03:25:45;;;;;;;2.83;2.30;;;;;;;15.83;100.00;101202.81;4911817;29;20040;-77
2022/06/26 03:28:11;;;;;;;4.47;2.30;;;;;;;15.83;100.00;101197.47;4909434;29;20035;-75
2022/06/26 03:30:37;;;;;;;2.53;2.33;;;;;;;15.84;100.00;101201.88;4898159;29;20040;-76
2022/06/26 03:33:02;;;;;;;4.18;2.97;;;;;;;15.84;100.00;101207.22;4913341;29;20403;-77
2022/06/26 03:35:28;;;;;;;3.65;2.97;;;;;;;15.84;100.00;101207.22;4911397;29;20044;-77
2022/06/26 03:37:54;;;;;;;4.25;3.00;;;;;;;15.85;100.00;101206.25;4910802;29;20035;-78
2022/06/26 03:40:20;;;;;;;5.93;3.45;;;;;;;15.86;100.00;101207.13;4894520;29;20040;-79
2022/06/26 03:42:47;;;;;;;5.40;3.75;;;;;;;15.87;100.00;101196.31;4915427;29;20062;-78
2022/06/26 03:45:13;;;;;;;5.53;4.00;;;;;;;15.86;100.00;101193.78;4915868;29;20095;-78
2022/06/26 03:47:38;;;;;;;7.60;4.57;;;;;;;15.87;100.00;101199.00;4917009;29;20102;-78
2022/06/26 03:50:06;;;;;;;8.82;5.32;;;;;;;15.88;100.00;101213.22;4917118;29;20044;-77
2022/06/26 03:52:31;;;;;;;5.22;4.05;;;;;;;15.87;100.00;101201.66;4913748;29;20099;-78
2022/06/26 03:54:57;;;;;;;8.73;5.28;;;;;;;15.89;100.00;101209.59;4916980;29;20040;-78
2022/06/26 03:57:23;;;;;;;8.30;5.43;;;;;;;15.88;100.00;101200.72;4916789;29;20040;-77
2022/06/26 03:59:48;;;;;;;9.93;5.60;;;;;;;15.88;100.00;101198.06;4912386;29;20040;-77
2022/06/26 04:02:14;;;;;;;10.25;6.65;;;;;;;15.89;100.00;101196.22;4880504;29;20032;-77
2022/06/26 04:04:39;;;;;;;10.90;7.32;;;;;;;15.87;100.00;101193.66;4882123;29;20036;-77
2022/06/26 04:07:05;;;;;;;13.10;7.13;;;;;;;15.88;100.00;101203.41;4897804;29;20051;-77
2022/06/26 04:09:30;;;;;;;14.80;8.32;;;;;;;15.88;100.00;101207.88;4901104;29;20398;-77
2022/06/26 04:11:55;;;;;;;14.15;9.07;;;;;;;15.86;100.00;101207.97;4916193;29;20047;-77
2022/06/26 04:14:21;;;;;;;18.15;9.65;;;;;;;15.86;100.00;101210.63;4910961;29;20039;-77
2022/06/26 04:16:46;;;;;;;18.02;10.52;;;;;;;15.87;100.00;101209.66;4916004;29;20038;-76
2022/06/26 04:19:12;;;;;;;17.48;11.02;;;;;;;15.86;100.00;101209.78;4915651;29;20043;-75
2022/06/26 04:21:37;;;;;;;18.88;11.02;;;;;;;15.86;100.00;101215.97;4914444;29;20040;-76
2022/06/26 04:24:03;;;;;;;18.63;10.90;;;;;;;15.87;100.00;101209.66;4898471;29;20111;-76
2022/06/26 04:26:29;;;;;;;21.38;11.85;;;;;;;15.87;100.00;101214.16;4914055;29;20046;-75
2022/06/26 04:28:55;;;;;;;19.30;11.52;;;;;;;15.86;100.00;101215.97;4918289;29;20039;-75
2022/06/26 04:31:21;;;;;;;21.77;11.77;;;;;;;15.87;100.00;101217.69;4897730;29;20486;-76
2022/06/26 04:33:46;;;;;;;21.42;13.27;;;;;;;15.89;100.00;101221.13;4898787;29;20466;-76
2022/06/26 04:36:12;;;;;;;25.27;12.10;;;;;;;15.89;100.00;101229.13;4914716;29;20047;-75
2022/06/26 04:38:38;;;;;;;22.05;12.90;;;;;;;15.91;100.00;101236.19;4900301;29;20040;-75
2022/06/26 04:41:31;;;;;;;24.65;13.15;;;;;;;15.93;100.00;101236.97;4894054;29;20056;-75
2022/06/26 04:43:49;;;;;;;24.33;12.50;;;;;;;15.93;100.00;101242.31;4915750;29;20434;-75
2022/06/26 04:46:14;;;;;;;24.67;13.35;;;;;;;15.98;100.00;101245.56;4897741;29;20082;-75
2022/06/26 04:48:40;;;;;;;26.67;14.05;;;;;;;15.98;100.00;101245.56;4899655;29;20617;-75
2022/06/26 04:51:05;;;;;;;25.92;13.70;;;;;;;16.00;100.00;101251.66;4915607;29;20053;-76
2022/06/26 04:53:31;;;;;;;26.60;14.27;;;;;;;16.02;100.00;101252.44;4896255;29;20027;-76
2022/06/26 04:55:56;;;;;;;26.98;14.30;;;;;;;16.04;100.00;101261.22;4914289;29;20475;-76
2022/06/26 04:58:22;;;;;;;25.08;14.20;;;;;;;16.06;100.00;101263.78;4898854;29;20114;-75
2022/06/26 05:00:47;;;;;;;27.23;15.05;;;;;;;16.11;100.00;101275.03;4897426;29;20146;-76
2022/06/26 05:03:13;;;;;;;30.63;15.63;;;;;;;16.15;100.00;101276.56;4897498;29;20035;-76
2022/06/26 05:05:38;;;;;;;29.52;15.23;;;;;;;16.15;100.00;101282.78;4914580;29;20038;-76
2022/06/26 05:08:04;;;;;;;28.75;16.27;;;;;;;16.15;100.00;101280.09;4898536;29;20048;-76
2022/06/26 05:10:29;;;;;;;29.42;15.70;;;;;;;16.15;100.00;101280.09;4915969;29;20044;-76
2022/06/26 05:12:55;;;;;;;26.83;15.70;;;;;;;16.15;100.00;101290.78;4915234;29;20336;-75
2022/06/26 05:15:20;;;;;;;29.40;16.13;;;;;;;16.17;100.00;101290.69;4911329;29;20784;-74
2022/06/26 05:17:46;;;;;;;33.05;17.25;;;;;;;16.17;100.00;101290.69;4898864;29;20039;-75
2022/06/26 05:20:11;;;;;;;31.60;16.50;;;;;;;16.18;100.00;101281.69;4915457;29;20489;-76
2022/06/26 05:22:37;;;;;;;34.80;17.33;;;;;;;16.19;100.00;101277.22;4912394;29;20208;-76
2022/06/26 05:25:03;;;;;;;30.33;17.08;;;;;;;16.21;100.00;101275.31;4913706;29;20051;-75
2022/06/26 05:27:28;;;;;;;33.17;18.15;;;;;;;16.22;100.00;101282.38;4913011;29;20089;-75
2022/06/26 05:29:54;;;;;;;31.17;17.23;;;;;;;16.23;100.00;101294.78;4914691;29;20062;-76
2022/06/26 05:32:19;;;;;;;36.08;18.30;;;;;;;16.22;100.00;101290.38;4911820;29;20038;-77
2022/06/26 05:34:45;;;;;;;31.55;18.10;;;;;;;16.23;100.00;101297.47;4879014;29;20051;-76
2022/06/26 05:37:10;;;;;;;33.67;18.55;;;;;;;16.23;100.00;101302.81;4914105;29;20398;-76
2022/06/26 05:39:36;;;;;;;36.13;19.20;;;;;;;16.23;100.00;101300.13;4914496;29;20039;-76
2022/06/26 05:42:01;;;;;;;35.38;19.98;;;;;;;16.22;100.00;101301.06;4895014;29;20060;-76
2022/06/26 05:44:26;;;;;;;36.85;19.27;;;;;;;16.21;100.00;101315.38;4915585;29;20055;-77
2022/06/26 05:46:52;;;;;;;41.05;20.60;;;;;;;16.20;100.00;101314.53;4912511;29;20398;-76
2022/06/26 05:49:17;;;;;;;39.53;20.08;;;;;;;16.22;100.00;101309.09;4895781;29;20107;-76
2022/06/26 05:51:43;;;;;;;39.70;20.77;;;;;;;16.23;100.00;101324.19;4916054;29;20042;-76
2022/06/26 05:54:08;;;;;;;34.47;19.38;;;;;;;16.24;100.00;101331.22;4899885;29;20449;-77
2022/06/26 05:56:34;;;;;;;33.90;17.63;;;;;;;16.26;100.00;101335.53;4900438;29;20040;-80
2022/06/26 05:58:59;;;;;;;31.45;18.05;;;;;;;16.20;100.00;101341.25;4917455;29;20031;-76
2022/06/26 06:01:25;;;;;;;27.10;16.25;;;;;;;16.14;100.00;101347.81;4883109;29;20122;-77
2022/06/26 06:03:50;;;;;;;26.55;15.05;;;;;;;16.15;100.00;101351.34;4915402;29;20386;-76
2022/06/26 06:06:16;;;;;;;24.58;14.15;;;;;;;16.11;100.00;101353.34;4914164;29;20053;-76
2022/06/26 06:08:42;;;;;;;24.00;13.93;;;;;;;16.10;100.00;101361.44;4899424;29;20075;-76
2022/06/26 06:11:07;;;;;;;21.02;13.05;;;;;;;16.13;100.00;101370.13;4914205;29;20130;-76
2022/06/26 06:13:33;;;;;;;22.73;13.10;;;;;;;16.18;100.00;101364.50;4913264;29;20703;-82
2022/06/26 06:15:58;;;;;;;21.63;12.52;;;;;;;16.17;100.00;101368.13;4896932;29;20134;-82
2022/06/26 06:18:24;;;;;;;20.35;11.98;;;;;;;16.19;100.00;101373.38;4896904;29;20032;-82
2022/06/26 06:20:50;;;;;;;17.45;11.30;;;;;;;16.24;100.00;101373.97;4894319;29;20055;-82
2022/06/26 06:23:15;;;;;;;20.23;12.50;;;;;;;16.41;100.00;101379.13;4882815;29;20388;-79
2022/06/26 06:25:41;;;;;;;21.90;12.95;;;;;;;16.53;100.00;101377.53;4895553;29;20095;-78
2022/06/26 06:28:07;;;;;;;23.25;12.20;;;;;;;16.73;100.00;101379.88;4913074;29;20130;-84
2022/06/26 06:30:35;;;;;;;18.05;11.20;;;;;;;16.91;100.00;101370.72;4911300;29;20024;-80
2022/06/26 06:33:01;;;;;;;17.77;11.23;;;;;;;17.11;100.00;101365.91;4897205;29;20062;-81
2022/06/26 06:35:27;;;;;;;19.40;11.15;;;;;;;17.36;100.00;101373.19;4895099;29;20027;-80
2022/06/26 06:37:52;;;;;;;12.73;8.65;;;;;;;17.51;100.00;101373.13;4909148;29;20855;-79
2022/06/26 06:40:18;;;;;;;8.65;6.30;;;;;;;17.64;100.00;101381.19;4878548;29;20403;-79
2022/06/26 06:42:44;;;;;;;10.13;5.43;;;;;;;17.85;100.00;101378.88;4909048;29;20082;-80
2022/06/26 06:45:10;;;;;;;6.68;5.15;;;;;;;18.07;100.00;101381.97;4896369;29;20200;-80
2022/06/26 06:47:36;;;;;;;5.65;4.53;;;;;;;18.22;100.00;101388.94;4914628;29;20075;-84
2022/06/26 06:50:03;;;;;;;8.27;4.72;;;;;;;18.36;100.00;101387.94;4914859;29;21634;-80
2022/06/26 06:52:28;;;;;;;7.22;4.55;;;;;;;18.58;100.00;101392.66;4913045;29;20131;-81
2022/06/26 06:54:54;;;;;;;8.32;4.85;;;;;;;18.65;100.00;101397.59;4912590;29;20036;-81
2022/06/26 06:57:19;;;;;;;6.45;4.47;;;;;;;18.81;100.00;101395.53;4913071;29;20494;-81
2022/06/26 06:59:45;;;;;;;5.53;3.95;;;;;;;18.96;100.00;101398.94;4898301;29;20031;-83
2022/06/26 07:02:10;;;;;;;5.22;4.07;;;;;;;19.02;100.00;101403.03;4882651;29;20063;-81
2022/06/26 07:04:36;;;;;;;5.22;4.00;;;;;;;19.16;100.00;101406.53;4910602;29;20035;-81
2022/06/26 07:07:01;;;;;;;5.68;3.78;;;;;;;19.21;100.00;101404.34;4914201;29;20031;-82
2022/06/26 07:09:27;;;;;;;4.05;3.45;;;;;;;19.29;100.00;101406.47;4899665;29;20126;-81
2022/06/26 07:11:55;;;;;;;5.68;3.80;;;;;;;19.38;100.00;101414.72;4895443;29;20039;-83
2022/06/26 07:14:21;;;;;;;4.55;3.90;;;;;;;19.49;100.00;101413.03;4896060;29;20043;-82
2022/06/26 07:16:47;;;;;;;6.35;4.20;;;;;;;19.49;100.00;101413.03;4912461;29;20043;-86
2022/06/26 07:19:16;;;;;;;6.50;4.40;;;;;;;19.37;97.76;101425.56;4865711;29;21286;-83
2022/06/26 07:21:43;;;;;;;6.25;4.57;;;;;;;19.31;100.00;101429.56;4880997;29;20044;-82
2022/06/26 07:24:13;;;;;;;5.15;4.07;;;;;;;19.38;100.00;101424.59;4867626;29;20051;-83
2022/06/26 07:26:39;;;;;;;5.20;4.13;;;;;;;19.36;97.74;101424.72;4899717;29;20591;-87
2022/06/26 07:29:06;;;;;;;5.28;4.00;;;;;;;19.33;100.00;101430.28;4897787;29;20688;-84
2022/06/26 07:31:32;;;;;;;5.75;4.55;;;;;;;19.27;95.71;101434.31;4898245;29;20044;-84
2022/06/26 07:36:55;;;;;;;4.32;3.90;;;;;;;19.33;100.00;101449.09;4887423;29;20395;-80
2022/06/26 07:39:21;;;;;;;4.35;3.60;;;;;;;19.49;100.00;101456.00;4914396;29;20059;-81
2022/06/26 07:41:50;;;;;;;4.95;3.33;;;;;;;19.56;100.00;101454.59;4914138;29;20058;-86
2022/06/26 07:44:16;;;;;;;5.57;3.75;;;;;;;19.56;98.25;101468.03;4899161;29;20036;-84
2022/06/26 07:46:44;;;;;;;5.25;3.83;;;;;;;19.61;98.38;101465.84;4915417;29;20047;-83
2022/06/26 07:49:12;;;;;;;3.88;2.95;;;;;;;19.80;100.00;101467.16;4897571;29;20035;-84
2022/06/26 07:51:45;;;;;;;3.92;3.45;;;;;;;19.82;98.35;101473.25;4867767;29;20116;-88
2022/06/26 07:54:16;;;;;;;5.25;2.90;;;;;;;19.64;95.33;101486.25;4868970;29;20040;-88
2022/06/26 07:56:42;;;;;;;5.43;3.10;;;;;;;19.36;91.94;101486.47;4912697;29;20094;-88
2022/06/26 07:59:08;;;;;;;3.88;3.42;;;;;;;19.14;93.98;101479.09;4898254;29;20146;-87
2022/06/26 08:01:36;;;;;;;3.67;2.70;;;;;;;19.06;96.72;101473.44;4896879;29;20055;-88
2022/06/26 08:04:02;;;;;;;3.15;2.60;;;;;;;19.18;99.42;101459.09;4896857;29;20055;-88
2022/06/26 08:06:29;;;;;;;3.35;2.30;;;;;;;19.29;97.86;101468.22;4914579;29;20032;-88
2022/06/26 08:08:55;;;;;;;3.33;2.70;;;;;;;19.51;94.28;101484.47;4899112;29;20179;-88
2022/06/26 08:11:24;;;;;;;4.00;2.72;;;;;;;19.79;96.81;101482.41;4866327;29;20094;-86
2022/06/26 08:13:49;;;;;;;6.78;3.15;;;;;;;20.00;91.41;101483.63;4896206;29;20087;-85
2022/06/26 08:16:16;;;;;;;3.05;2.75;;;;;;;20.09;92.53;101488.31;4915356;29;20498;-88
2022/06/26 08:18:48;;;;;;;3.40;2.30;;;;;;;20.10;92.88;101498.06;4915059;29;20071;-88
2022/06/26 08:23:58;;;;;;;4.68;2.85;;;;;;;20.06;90.44;101504.69;4911736;29;20067;-85
2022/06/26 08:26:24;;;;;;;4.47;3.13;;;;;;;20.09;89.99;101512.50;4916620;29;21450;-87
2022/06/26 08:28:49;;;;;;;4.68;3.20;;;;;;;19.82;86.20;101518.94;4885409;29;20491;-86
2022/06/26 08:31:15;;;;;;;3.25;2.88;;;;;;;19.56;87.29;101521.75;4917540;29;20542;-86
2022/06/26 08:33:43;;;;;;;5.35;3.22;;;;;;;19.39;88.98;101515.75;4887406;29;20031;-87
2022/06/26 08:36:09;;;;;;;3.42;3.00;;;;;;;19.47;93.23;101517.03;4903113;29;20036;-85
2022/06/26 08:38:35;;;;;;;4.60;2.88;;;;;;;19.68;93.46;101526.19;4919768;29;20039;-83
2022/06/26 08:41:01;;;;;;;2.25;2.00;;;;;;;19.96;87.94;101531.38;4883104;29;20052;-85
2022/06/26 08:43:27;;;;;;;2.40;1.90;;;;;;;20.13;85.01;101524.75;4900265;29;20043;-79
2022/06/26 08:45:53;;;;;;;2.45;1.95;;;;;;;20.35;88.72;101523.97;4896871;29;20057;-82
2022/06/26 08:48:21;;;;;;;2.65;1.92;;;;;;;20.61;82.08;101528.31;4899288;29;20060;-79
2022/06/26 08:50:46;;;;;;;2.78;2.00;;;;;;;20.80;89.78;101537.63;4879916;29;20036;-83
2022/06/26 08:53:15;;;;;;;3.15;2.45;;;;;;;20.93;90.46;101524.09;4881941;29;21369;-84
2022/06/26 08:55:42;;;;;;;3.35;2.28;;;;;;;20.84;88.66;101526.53;4879642;29;20036;-85
2022/06/26 08:58:08;;;;;;;2.92;2.47;;;;;;;20.69;86.33;101528.56;4882379;29;20031;-86
2022/06/26 09:00:34;;;;;;;2.95;2.30;;;;;;;20.57;89.37;101526.81;4878064;29;20074;-80
2022/06/26 09:02:59;;;;;;;3.30;2.50;;;;;;;20.55;88.99;101526.09;4880317;29;20450;-85
2022/06/26 09:05:25;;;;;;;2.70;2.35;;;;;;;20.76;90.60;101520.88;4885938;29;20797;-85
2022/06/26 09:07:52;;;;;;;3.10;1.83;;;;;;;21.08;90.87;101524.72;4886670;29;20779;-85
2022/06/26 09:10:19;;;;;;;1.80;1.35;;;;;;;21.33;83.05;101528.13;4882781;29;20423;-81
2022/06/26 09:12:57;;;;;;;1.30;1.20;;;;;;;21.33;81.21;101533.50;4898812;29;20039;-80
2022/06/26 09:15:24;;;;;;;2.28;1.58;;;;;;;21.46;82.09;101549.53;4898554;29;20039;-81
2022/06/26 09:18:01;;;;;;;3.25;1.45;;;;;;;21.68;78.15;101549.50;4881279;29;20020;-79
2022/06/26 09:20:30;;;;;;;1.77;1.20;;;;;;;21.82;75.25;101544.84;4880813;29;21456;-80
2022/06/26 09:22:58;;;;;;;3.60;1.50;;;;;;;21.90;79.05;101542.34;4898604;29;20096;-80
2022/06/26 09:25:34;;;;;;;2.17;1.50;;;;;;;22.06;80.07;101541.94;4899835;29;20095;-80
2022/06/26 09:28:16;;;;;;;1.40;1.30;;;;;;;22.37;80.59;101543.88;4898271;29;20028;-79
2022/06/26 09:30:55;;;;;;;2.53;1.80;;;;;;;22.67;76.66;101554.91;4899407;29;20059;-79
2022/06/26 09:33:23;;;;;;;3.00;2.03;;;;;;;22.79;80.80;101556.56;4899983;29;20032;-79
2022/06/26 09:35:49;;;;;;;3.85;1.83;;;;;;;22.72;79.04;101553.50;4879322;29;20032;-79
2022/06/26 09:38:19;;;;;;;5.43;2.10;;;;;;;22.53;76.67;101548.84;4898998;29;20123;-80
2022/06/26 09:40:46;;;;;;;2.25;1.75;;;;;;;22.32;72.64;101552.38;4897669;29;20039;-80
2022/06/26 09:43:15;;;;;;;2.85;2.05;;;;;;;22.23;77.23;101556.69;4917754;29;20062;-79
2022/06/26 09:45:41;;;;;;;2.80;1.98;;;;;;;22.05;75.70;101553.72;4900304;29;20074;-80
2022/06/26 09:48:09;;;;;;;2.83;2.08;;;;;;;21.93;77.97;101546.63;4890546;29;20799;-80
2022/06/26 09:50:35;;;;;;;3.25;2.20;;;;;;;21.75;74.96;101549.03;4912996;29;20178;-80
2022/06/26 09:53:01;;;;;;;3.63;2.22;;;;;;;21.58;78.19;101543.16;4912354;29;20035;-80
2022/06/26 09:55:26;;;;;;;2.65;2.10;;;;;;;21.55;79.37;101543.41;4914976;29;20118;-80
2022/06/26 09:57:52;;;;;;;3.88;2.00;;;;;;;21.51;79.11;101545.47;4898819;29;20031;-80
2022/06/26 10:00:18;;;;;;;3.40;2.20;;;;;;;21.49;78.98;101550.16;4916045;29;20071;-79
2022/06/26 10:08:19;;;;;;;2.65;2.20;;;;;;;21.90;77.15;101549.59;4899702;29;20035;-80
2022/06/26 10:10:45;;;;;;;2.30;2.10;;;;;;;22.02;78.33;101556.66;4897295;29;20047;-80
2022/06/26 10:13:11;;;;;;;4.10;2.10;;;;;;;22.10;78.56;101551.50;4899167;29;20505;-80
2022/06/26 10:15:54;;;;;;;2.92;2.58;;;;;;;22.18;76.75;101556.22;4916691;29;20036;-79
2022/06/26 10:18:37;;;;;;;4.03;3.08;;;;;;;22.08;76.62;101550.78;4898485;29;20043;-81
2022/06/26 10:21:12;;;;;;;3.22;2.92;;;;;;;22.01;71.41;101560.31;4880917;29;21456;-84
2022/06/26 10:23:40;;;;;;;3.63;2.65;;;;;;;21.95;77.38;101555.47;4911212;29;20031;-86
2022/06/26 10:26:21;;;;;;;3.53;3.10;;;;;;;21.88;73.21;101563.19;4894824;29;20043;-90
2022/06/26 10:28:59;;;;;;;3.38;3.08;;;;;;;21.83;75.84;101562.72;4898518;29;20039;-88
2022/06/26 10:31:28;;;;;;;4.25;3.08;;;;;;;21.79;78.32;101562.13;4912839;29;20037;-87
2022/06/26 10:33:54;;;;;;;3.78;3.10;;;;;;;21.78;78.34;101555.00;4897274;29;20032;-88
2022/06/26 10:36:23;;;;;;;3.33;3.03;;;;;;;21.86;78.84;101561.59;4896426;29;21441;-88
2022/06/26 10:38:49;;;;;;;2.63;2.40;;;;;;;21.78;76.31;101571.19;4901096;29;20084;-85
2022/06/26 10:44:07;;;;;;;3.47;3.08;;;;;;;21.82;77.83;101583.44;4915514;29;20043;-86
2022/06/26 10:46:44;;;;;;;3.83;3.13;;;;;;;21.90;77.33;101572.00;4882088;29;20036;-90
2022/06/26 10:49:09;;;;;;;3.95;2.85;;;;;;;21.96;77.66;101559.88;4897519;29;20044;-89
2022/06/26 10:51:41;;;;;;;6.13;3.70;;;;;;;22.01;77.48;101565.72;4900185;29;20043;-88
2022/06/26 10:54:22;;;;;;;3.55;3.25;;;;;;;22.03;73.37;101566.47;4898006;29;20139;-90
2022/06/26 10:57:01;;;;;;;4.28;3.70;;;;;;;21.99;75.86;101565.00;4900143;29;20040;-80
2022/06/26 10:59:27;;;;;;;4.18;3.70;;;;;;;21.95;76.84;101571.66;4912319;29;20506;-88
2022/06/26 11:01:52;;;;;;;4.28;3.92;;;;;;;21.96;77.21;101573.34;4898685;29;20039;-84
2022/06/26 11:04:18;;;;;;;5.43;3.88;;;;;;;21.93;77.54;101563.69;4900304;29;21478;-83
2022/06/26 11:06:43;;;;;;;6.18;3.97;;;;;;;21.91;76.13;101581.81;4914220;29;20044;-83
2022/06/26 11:09:09;;;;;;;4.15;3.67;;;;;;;21.88;76.96;101573.97;4898120;29;20044;-80
2022/06/26 11:11:35;;;;;;;5.03;3.72;;;;;;;21.87;76.83;101576.78;4916538;29;20055;-81
2022/06/26 11:14:09;;;;;;;4.30;3.90;;;;;;;21.79;76.76;101574.75;4915739;29;20558;-81
2022/06/26 11:16:38;;;;;;;4.13;3.72;;;;;;;21.73;76.46;101573.38;4908524;29;20514;-81
2022/06/26 11:19:21;;;;;;;5.28;4.15;;;;;;;21.72;76.62;101577.06;4914403;29;20032;-82
2022/06/26 11:21:47;;;;;;;3.75;3.33;;;;;;;21.77;77.17;101577.56;4915380;29;20126;-82
2022/06/26 11:24:12;;;;;;;4.25;3.20;;;;;;;21.76;76.31;101574.97;4915547;29;20031;-82
2022/06/26 11:26:38;;;;;;;2.83;2.63;;;;;;;21.69;75.38;101578.16;4915504;29;20635;-82
2022/06/26 11:29:05;;;;;;;4.90;2.80;;;;;;;21.67;75.01;101579.25;4897241;29;20126;-83
2022/06/26 11:31:32;;;;;;;2.17;2.00;;;;;;;21.67;74.33;101581.94;4897180;29;20042;-82
2022/06/26 11:34:10;;;;;;;3.13;2.28;;;;;;;21.67;73.17;101592.72;4898441;29;20063;-85